New Raymer, CO (80742)

12:30 AM MDT on August 22, 2014 (GMT -0600)
Fort Morgan | Change Station
CLOSE
Current Station
Airport
Location: Fort Morgan,
Elevation: 4570 ft
Nearby Weather Stations

Elev 4570 ft 40.33 °N, 103.80 °W | Updated 15 minutes ago

Overcast
Overcast
66 °F
Feels Like 66 °F
N
6
Wind Variable Wind from NW

Today
High -- | Low -- °F
--% Chance of Precip.
Yesterday
High -- | Low -- °F
Precip. -- in
6:12 AM 7:43 PM
Waning Crescent, 10% visible
Pressure 30.11 in
Visibility 10.0 miles
Clouds Overcast 9000 ft
Dew Point 56 °F
Humidity 69%
Rainfall 0.00 in
Snow Depth Not available.
UV 0 out of 12
Pollen 10.30 out of 12
Air Quality Not available.
Flu Activity Not available.
METAR KFMM 220615Z AUTO 32005KT 10SM OVC090 19/13 A3011 RMK AO2 T01900132 PWINO

More Conditions Fewer Conditions

Pressure 30.11 in
Visibility 10.0 miles
Clouds Overcast 9000 ft
Dew Point 56 °F
Humidity 69%
Rainfall 0.00 in
Snow Depth Not available.
UV 0 out of 12
Pollen 10.30 out of 12
Air Quality Not available.
Flu Activity Not available.
METAR KFMM 220615Z AUTO 32005KT 10SM OVC090 19/13 A3011 RMK AO2 T01900132 PWINO

More Conditions Fewer Conditions

Nowcast | as of 11:28 PM MDT on August 21, 2014

Scattered showers and a few thunderstorms will continue along tyhe Front Range until 1 am. Brief moderate rain and gusty winds to 35 mph will be possible with the . Elsewhere...light showers will move across the foothills. Rainfall amounts with these showers will be less than one tenth of an inch.

×

10-Day Weather Forecast

Almanac

Astronomy

Aug. 22, 2014 Rise Set
Actual Time 6:12 AM MDT 7:43 PM MDT
Civil Twilight 5:44 AM MDT 8:11 PM MDT
Nautical Twilight 5:09 AM MDT 8:46 PM MDT
Astronomical Twilight 4:32 AM MDT 9:22 PM MDT
Moon 3:37 AM MDT 5:53 PM MDT
Length of Visible Light 14h 27m
Length of Day
13h 30m
Tomorrow will be 2m 29s shorter.
Waning Crescent, 10% of the Moon is Illuminated
Today
Waning Crescent
Aug 25
New
Sep 2
First Quarter
Sep 8
Full
Sep 15
Last Quarter

Today's Extremes

State Highs State Lows

Community

WunderPhotos

Upload Photos

1,746,131 photos uploaded!

Nearby

Snow Depth

Station Depth Elevation
Niwot 0 in 9910 ft
Willow Park 0 in 10700 ft
University Camp 0 in 10300 ft
Lake Irene 0 in 10700 ft
Phantom Valley 0 in 9030 ft

Earthquake Activity

City Distance Mag. Time & Date
No recent earthquake activity has been reported nearby.
Minimum magnitude displayed is 2.5.

Coastal Water Temperatures

Place Temperature
No Stations Reporting

Nearby Weather Stations